Pleasanton, Texas
Current Conditions -  °F | °C
As of 2:55 AM on Wednesday 26 Nov 2014 (Local Time) from KPEZ Reporting Station
Light Snow Light Snow  
Wind Chill: 36°   Ceiling: Unl
Heat Index: 40°   Visibility: 10mi
Dew Point: 34°   Wind: 5mph
Humidity: 79%   Direction: 170°S
Pressure: 30.24"   Gusts: NA
Location:  28.97°N, 98.48°W
Report Text: KPEZ 260855Z AUTO 17004KT 10SM -SN CLR 04/01 A3024 RMK AO2 T00430010
Loading
Personal Weather Stations






























Interactive Weather Map New forecast layout! Learn more

10-Day Weather Forecast

Advertisements
Track Severe Weather on mobile